createdAt,value
2019-04-05T00:04:26.594Z,17.97
2019-04-05T00:09:21.458Z,17.73
2019-04-05T00:14:16.648Z,18.00
2019-04-05T00:19:11.591Z,16.63
2019-04-05T00:24:06.511Z,17.03
2019-04-05T00:29:01.434Z,16.50
2019-04-05T00:33:57.671Z,16.17
2019-04-05T00:38:54.893Z,16.70
2019-04-05T00:43:53.171Z,16.70
2019-04-05T00:48:48.100Z,17.43
2019-04-05T00:53:42.992Z,17.03
2019-04-05T00:58:37.938Z,16.20
2019-04-05T01:03:34.825Z,17.30
2019-04-05T01:08:29.795Z,18.00
2019-04-05T01:13:25.471Z,16.23
2019-04-05T01:18:20.762Z,17.80
2019-04-05T01:23:15.782Z,16.43
2019-04-05T01:28:11.487Z,16.63
2019-04-05T01:33:06.534Z,16.43
2019-04-05T01:38:01.666Z,16.57
2019-04-05T01:42:57.169Z,17.40
2019-04-05T01:47:52.905Z,16.47
2019-04-05T01:52:47.948Z,16.97
2019-04-05T01:57:42.907Z,18.30
2019-04-05T02:02:38.449Z,16.87
2019-04-05T02:07:33.722Z,15.73
2019-04-05T02:12:28.937Z,15.53
2019-04-05T02:17:23.901Z,15.60
2019-04-05T02:22:22.155Z,14.07
2019-04-05T02:27:17.109Z,14.33
2019-04-05T02:32:11.971Z,14.73
2019-04-05T02:37:07.014Z,14.73
2019-04-05T02:42:02.487Z,15.37
2019-04-05T02:46:57.901Z,16.00
2019-04-05T02:51:53.542Z,15.93
2019-04-05T02:56:49.771Z,15.17
2019-04-05T03:01:45.429Z,15.03
2019-04-05T03:06:41.279Z,15.63
2019-04-05T03:11:36.516Z,14.00
2019-04-05T03:16:40.729Z,15.07
2019-04-05T03:21:32.813Z,15.80
2019-04-05T03:26:30.942Z,15.77
2019-04-05T03:31:26.628Z,14.60
2019-04-05T03:36:21.608Z,14.37
2019-04-05T03:41:17.339Z,15.77
2019-04-05T03:46:12.615Z,15.67
2019-04-05T03:51:09.601Z,15.07
2019-04-05T03:56:04.840Z,14.67
2019-04-05T04:00:59.750Z,13.97
2019-04-05T04:05:54.761Z,14.30
2019-04-05T04:10:51.187Z,14.97
2019-04-05T04:15:46.451Z,15.50
2019-04-05T04:20:47.943Z,15.30
2019-04-05T04:25:43.684Z,15.20
2019-04-05T04:30:39.044Z,13.97
2019-04-05T04:35:34.453Z,13.27
2019-04-05T04:40:29.797Z,11.97
2019-04-05T04:45:24.828Z,12.07
2019-04-05T04:50:20.118Z,14.07
2019-04-05T04:55:15.670Z,13.77
2019-04-05T05:00:18.300Z,13.00
2019-04-05T05:05:17.037Z,12.93
2019-04-05T05:10:12.132Z,11.90
2019-04-05T05:15:08.140Z,12.90
2019-04-05T05:20:04.445Z,11.73
2019-04-05T05:24:59.710Z,13.17
2019-04-05T05:29:54.953Z,13.03
2019-04-05T05:35:01.439Z,12.47
2019-04-05T05:39:47.015Z,12.10
2019-04-05T05:44:42.259Z,12.30
2019-04-05T05:49:37.473Z,12.93
2019-04-05T05:54:32.431Z,11.83
2019-04-05T05:59:30.031Z,12.83
2019-04-05T06:04:24.288Z,13.10
2019-04-05T06:09:19.172Z,12.00
2019-04-05T06:14:14.053Z,13.63
2019-04-05T06:19:09.006Z,12.93
2019-04-05T06:24:05.362Z,12.40
2019-04-05T06:29:01.050Z,12.87
2019-04-05T06:33:57.085Z,12.50
2019-04-05T06:38:52.154Z,14.30
2019-04-05T06:43:47.737Z,12.30
2019-04-05T06:48:43.081Z,11.97
2019-04-05T06:53:38.028Z,12.37
2019-04-05T06:58:33.952Z,12.23
2019-04-05T07:03:31.935Z,12.20
2019-04-05T07:08:26.802Z,12.30
2019-04-05T07:13:22.755Z,12.37
2019-04-05T07:18:31.558Z,12.00
2019-04-05T07:23:15.320Z,11.47
2019-04-05T07:28:10.508Z,12.13
2019-04-05T07:33:05.456Z,12.33
2019-04-05T07:38:00.343Z,12.37
2019-04-05T07:42:55.261Z,12.80
2019-04-05T07:47:51.111Z,12.17
2019-04-05T07:52:49.069Z,11.73
2019-04-05T07:57:44.979Z,11.87
2019-04-05T08:02:42.947Z,11.03
2019-04-05T08:07:42.894Z,11.53
2019-04-05T08:12:43.830Z,11.37
2019-04-05T08:17:38.695Z,11.53
2019-04-05T08:22:36.007Z,11.60
2019-04-05T08:27:32.969Z,11.77
2019-04-05T08:32:28.016Z,11.70
2019-04-05T08:37:23.416Z,12.03
2019-04-05T08:42:18.317Z,10.77
2019-04-05T08:47:16.388Z,10.80
2019-04-05T08:52:11.340Z,10.80
2019-04-05T08:57:09.631Z,10.77
2019-04-05T09:02:04.697Z,10.77
2019-04-05T09:06:59.566Z,10.43
2019-04-05T09:11:54.818Z,10.83
2019-04-05T09:16:49.684Z,10.87
2019-04-05T09:21:46.842Z,10.27
2019-04-05T09:26:42.159Z,10.30
2019-04-05T09:31:39.056Z,10.20
2019-04-05T09:36:34.664Z,10.47
2019-04-05T09:41:35.358Z,11.60
2019-04-05T09:46:45.599Z,10.87
2019-04-05T09:51:32.168Z,11.63
2019-04-05T09:56:27.822Z,10.37
2019-04-05T10:01:24.718Z,10.53
2019-04-05T10:06:19.607Z,10.73
2019-04-05T10:11:14.878Z,11.10
2019-04-05T10:16:09.753Z,10.93
2019-04-05T10:21:06.795Z,11.33
2019-04-05T10:26:01.906Z,9.93
2019-04-05T10:30:56.763Z,10.43
2019-04-05T10:35:51.698Z,11.97
2019-04-05T10:40:46.645Z,12.03
2019-04-05T10:45:43.766Z,12.10
2019-04-05T10:50:39.499Z,11.83
2019-04-05T10:55:34.412Z,12.73
2019-04-05T11:00:29.502Z,11.53
2019-04-05T11:05:30.458Z,12.63
2019-04-05T11:10:25.313Z,12.53
2019-04-05T11:15:20.553Z,13.00
2019-04-05T11:20:22.166Z,12.70
2019-04-05T11:25:15.912Z,12.00
2019-04-05T11:30:11.665Z,11.80
2019-04-05T11:35:07.043Z,11.37
2019-04-05T11:40:02.046Z,11.83
2019-04-05T11:44:57.366Z,12.00
2019-04-05T11:49:55.069Z,13.13
2019-04-05T11:54:49.760Z,12.33
2019-04-05T11:59:44.793Z,12.60
2019-04-05T12:04:42.641Z,11.43
2019-04-05T12:09:36.421Z,12.00
2019-04-05T12:14:31.500Z,12.67
2019-04-05T12:19:26.452Z,12.63
2019-04-05T12:24:21.465Z,12.80
2019-04-05T12:29:22.210Z,13.77
2019-04-05T12:34:17.111Z,14.73
2019-04-05T12:39:12.404Z,17.93
2019-04-05T12:44:07.400Z,17.10
2019-04-05T12:49:02.303Z,14.87
2019-04-05T12:53:57.503Z,14.20
2019-04-05T12:58:55.502Z,14.97
2019-04-05T13:03:51.360Z,16.00
2019-04-05T13:08:46.225Z,14.47
2019-04-05T13:13:42.478Z,15.20
2019-04-05T13:18:37.385Z,14.23
2019-04-05T13:23:35.571Z,15.73
2019-04-05T13:28:29.250Z,14.87
2019-04-05T13:33:24.231Z,15.03
2019-04-05T13:38:19.268Z,15.57
2019-04-05T13:43:20.099Z,14.43
2019-04-05T13:48:16.441Z,14.17
2019-04-05T13:53:11.986Z,15.53
2019-04-05T13:58:10.884Z,14.53
2019-04-05T14:03:04.676Z,13.83
2019-04-05T14:08:10.074Z,15.00
2019-04-05T14:12:56.543Z,15.23
2019-04-05T14:17:54.521Z,14.60
2019-04-05T14:22:55.311Z,15.10
2019-04-05T14:27:50.499Z,18.00
2019-04-05T14:32:50.850Z,15.03
2019-04-05T14:37:47.477Z,14.13
2019-04-05T14:42:44.590Z,13.60
2019-04-05T14:47:51.394Z,14.17
2019-04-05T14:52:46.291Z,14.03
2019-04-05T14:57:41.288Z,15.37
2019-04-05T15:02:39.378Z,14.87
2019-04-05T15:07:34.367Z,13.90
2019-04-05T15:12:29.631Z,14.60
2019-04-05T15:17:24.498Z,14.87
2019-04-05T15:22:19.501Z,14.97
2019-04-05T15:27:14.818Z,13.53
2019-04-05T15:32:09.775Z,14.93
2019-04-05T15:37:04.836Z,14.10
2019-04-05T15:41:59.876Z,14.37
2019-04-05T15:46:56.940Z,15.50
2019-04-05T15:51:54.309Z,14.87
2019-04-05T15:56:49.663Z,14.93
2019-04-05T16:01:44.741Z,15.13
2019-04-05T16:06:39.683Z,15.10
2019-04-05T16:11:40.503Z,15.67
2019-04-05T16:16:35.448Z,14.77
2019-04-05T16:21:31.347Z,14.63
2019-04-05T16:26:29.396Z,16.07
2019-04-05T16:31:24.391Z,15.70
2019-04-05T16:36:19.499Z,15.27
2019-04-05T16:41:14.740Z,15.97
2019-04-05T16:46:18.816Z,14.50
2019-04-05T16:51:14.156Z,14.80
2019-04-05T16:56:09.153Z,16.10
2019-04-05T17:01:04.186Z,15.87
2019-04-05T17:05:59.140Z,16.27
2019-04-05T17:10:54.519Z,16.07
2019-04-05T17:15:49.630Z,18.03
2019-04-05T17:20:58.879Z,17.43
2019-04-05T17:25:54.372Z,17.47
2019-04-05T17:30:50.290Z,17.87
2019-04-05T17:35:45.401Z,17.40
2019-04-05T17:40:40.391Z,19.37
2019-04-05T17:45:36.416Z,19.10
2019-04-05T17:50:33.524Z,16.40
2019-04-05T17:55:28.636Z,17.70
2019-04-05T18:00:24.562Z,19.27
2019-04-05T18:05:19.603Z,17.30
2019-04-05T18:10:16.367Z,16.67
2019-04-05T18:15:13.052Z,16.57
2019-04-05T18:20:10.097Z,16.80
2019-04-05T18:25:14.505Z,18.30
2019-04-05T18:30:10.000Z,19.47
2019-04-05T18:35:13.839Z,18.93
2019-04-05T18:40:08.805Z,19.20
2019-04-05T18:45:09.785Z,20.20
2019-04-05T18:50:05.268Z,19.30
2019-04-05T18:55:00.191Z,19.13
2019-04-05T19:00:01.067Z,19.87
2019-04-05T19:04:57.051Z,18.53
2019-04-05T19:09:52.175Z,19.07
2019-04-05T19:14:47.121Z,19.10
2019-04-05T19:19:42.079Z,19.40
2019-04-05T19:24:37.104Z,19.07
2019-04-05T19:29:33.965Z,19.50
2019-04-05T19:49:21.112Z,20.67
2019-04-05T19:54:15.969Z,18.40
2019-04-05T19:59:11.158Z,19.43
2019-04-05T20:04:06.126Z,20.13
2019-04-05T20:09:01.035Z,19.63
2019-04-05T20:13:55.959Z,20.47
2019-04-05T20:18:50.979Z,20.90
2019-04-05T20:23:47.748Z,20.43
2019-04-05T20:28:44.717Z,19.97
2019-04-05T20:33:39.897Z,20.60
2019-04-05T20:38:35.237Z,19.37
2019-04-05T20:43:30.486Z,21.57
2019-04-05T20:48:31.353Z,20.83
2019-04-05T20:53:26.303Z,19.07
2019-04-05T20:58:22.297Z,19.87
2019-04-05T21:03:17.565Z,20.03
2019-04-05T21:08:12.508Z,19.27
2019-04-05T21:13:08.042Z,18.90
2019-04-05T21:18:02.947Z,19.00
2019-04-05T21:22:57.881Z,19.97
2019-04-05T21:27:53.197Z,19.57
2019-04-05T21:32:48.252Z,19.10
2019-04-05T21:37:46.159Z,19.53
2019-04-05T21:42:41.034Z,19.53
2019-04-05T21:47:36.369Z,20.77
2019-04-05T21:52:31.962Z,20.13
2019-04-05T21:57:27.299Z,19.33
2019-04-05T22:02:22.213Z,19.43
2019-04-05T22:07:17.742Z,19.53
2019-04-05T22:12:12.586Z,19.37
2019-04-05T22:17:08.431Z,20.47
2019-04-05T22:22:03.351Z,19.77
2019-04-05T22:26:58.291Z,21.20
2019-04-05T22:31:53.269Z,20.07
2019-04-05T22:36:54.654Z,20.40
2019-04-05T22:41:50.860Z,22.70
2019-04-05T22:46:51.757Z,22.10
2019-04-05T22:51:47.981Z,20.73
2019-04-05T22:56:43.265Z,20.53
2019-04-05T23:01:38.175Z,21.17
2019-04-05T23:06:33.169Z,19.30
2019-04-05T23:11:28.166Z,20.00
2019-04-05T23:16:23.414Z,18.70
2019-04-05T23:21:20.311Z,18.20
2019-04-05T23:26:15.570Z,16.90
2019-04-05T23:31:10.459Z,17.33
2019-04-05T23:36:08.751Z,18.23
2019-04-05T23:41:04.366Z,16.53
2019-04-05T23:45:59.847Z,17.53
2019-04-05T23:50:55.025Z,16.53
2019-04-05T23:55:56.060Z,17.77
